sensor_id;sensor_type;location;lat;lon;timestamp;temperature;humidity
27306;DHT22;14792;50.886;6.468;2023-06-14T00:00:20;19.30;92.10
27306;DHT22;14792;50.886;6.468;2023-06-14T00:03:21;19.20;92.50
27306;DHT22;14792;50.886;6.468;2023-06-14T00:06:23;19.10;92.80
27306;DHT22;14792;50.886;6.468;2023-06-14T00:09:25;19.00;92.70
27306;DHT22;14792;50.886;6.468;2023-06-14T00:12:27;19.00;92.20
27306;DHT22;14792;50.886;6.468;2023-06-14T00:15:30;18.80;92.80
27306;DHT22;14792;50.886;6.468;2023-06-14T00:18:31;18.80;93.40
27306;DHT22;14792;50.886;6.468;2023-06-14T00:21:32;18.70;93.00
27306;DHT22;14792;50.886;6.468;2023-06-14T00:24:34;18.70;93.40
27306;DHT22;14792;50.886;6.468;2023-06-14T00:27:35;18.60;94.20
27306;DHT22;14792;50.886;6.468;2023-06-14T00:30:37;18.40;94.70
27306;DHT22;14792;50.886;6.468;2023-06-14T00:33:39;18.30;94.40
27306;DHT22;14792;50.886;6.468;2023-06-14T00:36:40;18.10;94.90
27306;DHT22;14792;50.886;6.468;2023-06-14T00:39:42;17.80;95.60
27306;DHT22;14792;50.886;6.468;2023-06-14T00:42:43;17.60;96.60
27306;DHT22;14792;50.886;6.468;2023-06-14T00:45:45;17.30;97.00
27306;DHT22;14792;50.886;6.468;2023-06-14T00:48:46;17.20;97.50
27306;DHT22;14792;50.886;6.468;2023-06-14T00:51:48;17.00;98.00
27306;DHT22;14792;50.886;6.468;2023-06-14T00:54:50;17.00;98.30
27306;DHT22;14792;50.886;6.468;2023-06-14T00:57:51;17.00;98.80
27306;DHT22;14792;50.886;6.468;2023-06-14T01:00:53;17.00;99.20
27306;DHT22;14792;50.886;6.468;2023-06-14T01:03:54;16.90;98.70
27306;DHT22;14792;50.886;6.468;2023-06-14T01:07:02;16.90;98.50
27306;DHT22;14792;50.886;6.468;2023-06-14T01:10:12;16.90;99.20
27306;DHT22;14792;50.886;6.468;2023-06-14T01:16:30;16.90;99.60
27306;DHT22;14792;50.886;6.468;2023-06-14T01:19:32;16.90;99.90
27306;DHT22;14792;50.886;6.468;2023-06-14T01:22:33;16.90;99.90
27306;DHT22;14792;50.886;6.468;2023-06-14T01:25:35;16.80;99.90
27306;DHT22;14792;50.886;6.468;2023-06-14T01:28:37;16.80;99.90
27306;DHT22;14792;50.886;6.468;2023-06-14T01:31:38;16.50;99.90
27306;DHT22;14792;50.886;6.468;2023-06-14T01:34:40;16.60;99.90
27306;DHT22;14792;50.886;6.468;2023-06-14T01:37:42;16.30;99.90
27306;DHT22;14792;50.886;6.468;2023-06-14T01:40:43;16.20;99.90
27306;DHT22;14792;50.886;6.468;2023-06-14T01:43:45;16.00;99.90
27306;DHT22;14792;50.886;6.468;2023-06-14T01:46:46;16.00;99.90
27306;DHT22;14792;50.886;6.468;2023-06-14T01:49:48;16.00;99.90
27306;DHT22;14792;50.886;6.468;2023-06-14T01:52:49;16.10;99.90
27306;DHT22;14792;50.886;6.468;2023-06-14T01:55:51;16.10;99.90
27306;DHT22;14792;50.886;6.468;2023-06-14T01:58:53;16.10;99.90
27306;DHT22;14792;50.886;6.468;2023-06-14T02:01:54;16.20;99.90
27306;DHT22;14792;50.886;6.468;2023-06-14T02:04:56;16.20;99.90
27306;DHT22;14792;50.886;6.468;2023-06-14T02:07:57;16.20;99.90
27306;DHT22;14792;50.886;6.468;2023-06-14T02:10:59;16.20;99.90
27306;DHT22;14792;50.886;6.468;2023-06-14T02:14:00;16.20;99.90
27306;DHT22;14792;50.886;6.468;2023-06-14T02:17:02;16.20;99.90
27306;DHT22;14792;50.886;6.468;2023-06-14T02:20:04;16.20;99.90
27306;DHT22;14792;50.886;6.468;2023-06-14T02:23:05;16.20;99.90
27306;DHT22;14792;50.886;6.468;2023-06-14T02:26:07;16.20;99.90
27306;DHT22;14792;50.886;6.468;2023-06-14T02:29:08;16.20;99.90
27306;DHT22;14792;50.886;6.468;2023-06-14T02:32:10;16.10;99.90
27306;DHT22;14792;50.886;6.468;2023-06-14T02:35:12;16.10;99.90
27306;DHT22;14792;50.886;6.468;2023-06-14T02:38:13;16.10;99.90
27306;DHT22;14792;50.886;6.468;2023-06-14T02:41:15;16.10;99.90
27306;DHT22;14792;50.886;6.468;2023-06-14T02:44:23;16.00;99.90
27306;DHT22;14792;50.886;6.468;2023-06-14T02:47:21;16.00;99.90
27306;DHT22;14792;50.886;6.468;2023-06-14T02:50:23;16.00;99.90
27306;DHT22;14792;50.886;6.468;2023-06-14T02:53:24;16.00;99.90
27306;DHT22;14792;50.886;6.468;2023-06-14T02:56:26;16.00;99.90
27306;DHT22;14792;50.886;6.468;2023-06-14T02:59:29;16.00;99.90
27306;DHT22;14792;50.886;6.468;2023-06-14T03:02:30;16.00;99.90
27306;DHT22;14792;50.886;6.468;2023-06-14T03:05:32;15.90;99.90
27306;DHT22;14792;50.886;6.468;2023-06-14T03:08:33;15.90;99.90
27306;DHT22;14792;50.886;6.468;2023-06-14T03:11:36;15.90;99.90
27306;DHT22;14792;50.886;6.468;2023-06-14T03:14:38;15.90;99.90
27306;DHT22;14792;50.886;6.468;2023-06-14T03:17:39;15.70;99.90
27306;DHT22;14792;50.886;6.468;2023-06-14T03:20:41;15.60;99.90
27306;DHT22;14792;50.886;6.468;2023-06-14T03:23:43;15.50;99.90
27306;DHT22;14792;50.886;6.468;2023-06-14T03:26:44;15.40;99.90
27306;DHT22;14792;50.886;6.468;2023-06-14T03:29:46;15.40;99.90
27306;DHT22;14792;50.886;6.468;2023-06-14T03:32:47;15.30;99.90
27306;DHT22;14792;50.886;6.468;2023-06-14T03:35:49;15.40;99.90
27306;DHT22;14792;50.886;6.468;2023-06-14T03:38:50;15.30;99.90
27306;DHT22;14792;50.886;6.468;2023-06-14T03:41:52;15.30;99.90
27306;DHT22;14792;50.886;6.468;2023-06-14T03:44:54;15.30;99.90
27306;DHT22;14792;50.886;6.468;2023-06-14T03:47:55;15.30;99.90
27306;DHT22;14792;50.886;6.468;2023-06-14T03:50:57;15.30;99.90
27306;DHT22;14792;50.886;6.468;2023-06-14T03:53:58;15.50;99.90
27306;DHT22;14792;50.886;6.468;2023-06-14T03:57:00;15.50;99.90
27306;DHT22;14792;50.886;6.468;2023-06-14T04:00:03;15.50;99.90
27306;DHT22;14792;50.886;6.468;2023-06-14T04:03:04;15.60;99.90
27306;DHT22;14792;50.886;6.468;2023-06-14T04:06:06;15.70;99.90
27306;DHT22;14792;50.886;6.468;2023-06-14T04:09:08;15.80;99.90
27306;DHT22;14792;50.886;6.468;2023-06-14T04:12:09;15.70;99.90
27306;DHT22;14792;50.886;6.468;2023-06-14T04:15:11;15.70;99.90
27306;DHT22;14792;50.886;6.468;2023-06-14T04:18:12;15.70;99.90
27306;DHT22;14792;50.886;6.468;2023-06-14T04:21:14;15.90;99.90
27306;DHT22;14792;50.886;6.468;2023-06-14T04:24:16;15.80;99.90
27306;DHT22;14792;50.886;6.468;2023-06-14T04:27:17;15.90;99.90
27306;DHT22;14792;50.886;6.468;2023-06-14T04:30:19;15.90;99.90
27306;DHT22;14792;50.886;6.468;2023-06-14T04:33:20;15.90;99.90
27306;DHT22;14792;50.886;6.468;2023-06-14T04:36:22;15.90;99.90
27306;DHT22;14792;50.886;6.468;2023-06-14T04:39:23;16.00;99.90
27306;DHT22;14792;50.886;6.468;2023-06-14T04:42:25;16.00;99.90
27306;DHT22;14792;50.886;6.468;2023-06-14T04:45:27;16.10;99.90
27306;DHT22;14792;50.886;6.468;2023-06-14T04:48:28;16.20;99.90
27306;DHT22;14792;50.886;6.468;2023-06-14T04:51:30;16.20;99.90
27306;DHT22;14792;50.886;6.468;2023-06-14T04:54:31;16.30;99.90
27306;DHT22;14792;50.886;6.468;2023-06-14T04:57:33;16.30;99.90
27306;DHT22;14792;50.886;6.468;2023-06-14T05:00:36;16.40;99.90
27306;DHT22;14792;50.886;6.468;2023-06-14T05:03:37;16.50;99.90
27306;DHT22;14792;50.886;6.468;2023-06-14T05:06:39;16.60;99.90
27306;DHT22;14792;50.886;6.468;2023-06-14T05:09:41;16.60;99.90
27306;DHT22;14792;50.886;6.468;2023-06-14T05:12:42;16.70;99.90
27306;DHT22;14792;50.886;6.468;2023-06-14T05:15:44;16.90;99.90
27306;DHT22;14792;50.886;6.468;2023-06-14T05:18:45;17.00;99.90
27306;DHT22;14792;50.886;6.468;2023-06-14T05:21:47;16.90;99.90
27306;DHT22;14792;50.886;6.468;2023-06-14T05:24:49;17.00;99.90
27306;DHT22;14792;50.886;6.468;2023-06-14T05:27:50;17.00;99.90
27306;DHT22;14792;50.886;6.468;2023-06-14T05:30:52;17.10;99.90
27306;DHT22;14792;50.886;6.468;2023-06-14T05:33:53;17.10;99.90
27306;DHT22;14792;50.886;6.468;2023-06-14T05:36:55;17.20;99.90
27306;DHT22;14792;50.886;6.468;2023-06-14T05:39:57;17.30;99.90
27306;DHT22;14792;50.886;6.468;2023-06-14T05:42:58;17.40;99.90
27306;DHT22;14792;50.886;6.468;2023-06-14T05:46:01;17.40;99.90
27306;DHT22;14792;50.886;6.468;2023-06-14T05:49:02;17.50;99.90
27306;DHT22;14792;50.886;6.468;2023-06-14T05:52:04;17.60;99.90
27306;DHT22;14792;50.886;6.468;2023-06-14T05:55:06;17.70;99.90
27306;DHT22;14792;50.886;6.468;2023-06-14T05:58:07;17.80;99.90
27306;DHT22;14792;50.886;6.468;2023-06-14T06:01:09;17.90;99.90
27306;DHT22;14792;50.886;6.468;2023-06-14T06:04:10;17.90;99.90
27306;DHT22;14792;50.886;6.468;2023-06-14T06:07:12;18.00;99.90
27306;DHT22;14792;50.886;6.468;2023-06-14T06:10:14;18.10;99.90
27306;DHT22;14792;50.886;6.468;2023-06-14T06:13:15;18.20;99.90
27306;DHT22;14792;50.886;6.468;2023-06-14T06:16:17;18.30;99.90
27306;DHT22;14792;50.886;6.468;2023-06-14T06:19:18;18.40;99.90
27306;DHT22;14792;50.886;6.468;2023-06-14T06:22:20;18.60;99.80
27306;DHT22;14792;50.886;6.468;2023-06-14T06:25:21;18.70;99.90
27306;DHT22;14792;50.886;6.468;2023-06-14T06:28:23;18.90;99.50
27306;DHT22;14792;50.886;6.468;2023-06-14T06:31:25;19.10;99.00
27306;DHT22;14792;50.886;6.468;2023-06-14T06:34:26;19.30;98.60
27306;DHT22;14792;50.886;6.468;2023-06-14T06:37:28;19.60;98.70
27306;DHT22;14792;50.886;6.468;2023-06-14T06:40:29;19.70;98.60
27306;DHT22;14792;50.886;6.468;2023-06-14T06:43:31;20.00;98.00
27306;DHT22;14792;50.886;6.468;2023-06-14T06:46:33;20.10;97.10
27306;DHT22;14792;50.886;6.468;2023-06-14T06:49:34;20.30;97.40
27306;DHT22;14792;50.886;6.468;2023-06-14T06:52:36;20.40;97.00
27306;DHT22;14792;50.886;6.468;2023-06-14T06:55:37;20.50;96.00
27306;DHT22;14792;50.886;6.468;2023-06-14T06:58:39;20.60;96.20
27306;DHT22;14792;50.886;6.468;2023-06-14T07:01:41;20.90;95.60
27306;DHT22;14792;50.886;6.468;2023-06-14T07:04:42;21.20;95.20
27306;DHT22;14792;50.886;6.468;2023-06-14T07:07:44;21.10;94.90
27306;DHT22;14792;50.886;6.468;2023-06-14T07:10:45;21.30;94.70
27306;DHT22;14792;50.886;6.468;2023-06-14T07:13:47;21.40;93.90
27306;DHT22;14792;50.886;6.468;2023-06-14T07:16:48;21.80;93.70
27306;DHT22;14792;50.886;6.468;2023-06-14T07:19:50;21.70;92.80
27306;DHT22;14792;50.886;6.468;2023-06-14T07:22:52;22.00;93.40
27306;DHT22;14792;50.886;6.468;2023-06-14T07:25:53;22.10;93.00
27306;DHT22;14792;50.886;6.468;2023-06-14T07:28:55;22.10;92.80
27306;DHT22;14792;50.886;6.468;2023-06-14T07:31:56;22.10;92.10
27306;DHT22;14792;50.886;6.468;2023-06-14T07:34:58;22.30;91.90
27306;DHT22;14792;50.886;6.468;2023-06-14T07:38:00;22.30;92.60
27306;DHT22;14792;50.886;6.468;2023-06-14T07:41:01;22.40;92.20
27306;DHT22;14792;50.886;6.468;2023-06-14T07:44:03;22.60;92.50
27306;DHT22;14792;50.886;6.468;2023-06-14T07:47:04;22.90;92.10
27306;DHT22;14792;50.886;6.468;2023-06-14T07:50:06;23.40;91.90
27306;DHT22;14792;50.886;6.468;2023-06-14T07:53:08;23.30;91.60
27306;DHT22;14792;50.886;6.468;2023-06-14T07:56:09;23.50;91.60
27306;DHT22;14792;50.886;6.468;2023-06-14T07:59:11;23.70;90.80
27306;DHT22;14792;50.886;6.468;2023-06-14T08:02:12;23.50;90.30
27306;DHT22;14792;50.886;6.468;2023-06-14T08:05:14;23.40;89.80
27306;DHT22;14792;50.886;6.468;2023-06-14T08:08:15;23.80;90.60
27306;DHT22;14792;50.886;6.468;2023-06-14T08:11:17;24.10;90.30
27306;DHT22;14792;50.886;6.468;2023-06-14T08:14:19;24.40;87.60
27306;DHT22;14792;50.886;6.468;2023-06-14T08:17:20;24.30;88.30
27306;DHT22;14792;50.886;6.468;2023-06-14T08:20:22;24.30;87.30
27306;DHT22;14792;50.886;6.468;2023-06-14T08:23:23;24.20;87.80
27306;DHT22;14792;50.886;6.468;2023-06-14T08:26:25;24.40;89.00
27306;DHT22;14792;50.886;6.468;2023-06-14T08:29:29;24.90;88.20
27306;DHT22;14792;50.886;6.468;2023-06-14T08:32:31;24.80;85.60
27306;DHT22;14792;50.886;6.468;2023-06-14T08:35:32;25.30;84.60
27306;DHT22;14792;50.886;6.468;2023-06-14T08:38:34;25.20;85.30
27306;DHT22;14792;50.886;6.468;2023-06-14T08:41:36;24.90;83.90
27306;DHT22;14792;50.886;6.468;2023-06-14T08:44:37;24.60;84.80
27306;DHT22;14792;50.886;6.468;2023-06-14T08:47:39;25.00;83.00
27306;DHT22;14792;50.886;6.468;2023-06-14T08:50:40;25.00;85.70
27306;DHT22;14792;50.886;6.468;2023-06-14T08:53:42;25.20;83.60
27306;DHT22;14792;50.886;6.468;2023-06-14T08:56:44;25.60;85.70
27306;DHT22;14792;50.886;6.468;2023-06-14T08:59:48;24.90;85.00
27306;DHT22;14792;50.886;6.468;2023-06-14T09:02:52;24.60;86.30
27306;DHT22;14792;50.886;6.468;2023-06-14T09:05:54;24.80;83.10
27306;DHT22;14792;50.886;6.468;2023-06-14T09:08:55;25.20;83.70
27306;DHT22;14792;50.886;6.468;2023-06-14T09:11:57;25.40;83.40
27306;DHT22;14792;50.886;6.468;2023-06-14T09:14:58;25.70;79.80
27306;DHT22;14792;50.886;6.468;2023-06-14T09:18:03;26.10;78.50
27306;DHT22;14792;50.886;6.468;2023-06-14T09:21:07;25.80;79.20
27306;DHT22;14792;50.886;6.468;2023-06-14T09:24:13;26.20;79.60
27306;DHT22;14792;50.886;6.468;2023-06-14T09:27:14;26.10;77.00
27306;DHT22;14792;50.886;6.468;2023-06-14T09:30:12;26.10;78.00
27306;DHT22;14792;50.886;6.468;2023-06-14T09:33:16;26.30;79.00
27306;DHT22;14792;50.886;6.468;2023-06-14T09:36:26;26.40;77.10
27306;DHT22;14792;50.886;6.468;2023-06-14T09:39:28;26.70;77.00
27306;DHT22;14792;50.886;6.468;2023-06-14T09:42:29;26.30;74.60
27306;DHT22;14792;50.886;6.468;2023-06-14T09:45:31;26.50;71.90
27306;DHT22;14792;50.886;6.468;2023-06-14T09:48:32;26.00;75.70
27306;DHT22;14792;50.886;6.468;2023-06-14T09:51:34;26.10;70.50
27306;DHT22;14792;50.886;6.468;2023-06-14T09:54:36;26.20;71.60
27306;DHT22;14792;50.886;6.468;2023-06-14T09:57:37;26.20;69.40
27306;DHT22;14792;50.886;6.468;2023-06-14T10:00:39;26.20;72.10
27306;DHT22;14792;50.886;6.468;2023-06-14T10:03:40;26.20;69.60
27306;DHT22;14792;50.886;6.468;2023-06-14T10:06:43;26.20;70.80
27306;DHT22;14792;50.886;6.468;2023-06-14T10:09:44;26.60;72.30
27306;DHT22;14792;50.886;6.468;2023-06-14T10:12:45;26.90;70.50
27306;DHT22;14792;50.886;6.468;2023-06-14T10:16:07;26.70;66.70
27306;DHT22;14792;50.886;6.468;2023-06-14T10:19:18;26.70;68.10
27306;DHT22;14792;50.886;6.468;2023-06-14T10:22:32;26.30;69.00
27306;DHT22;14792;50.886;6.468;2023-06-14T10:25:30;27.00;70.10
27306;DHT22;14792;50.886;6.468;2023-06-14T10:28:31;27.20;67.30
27306;DHT22;14792;50.886;6.468;2023-06-14T10:31:56;27.10;69.40
27306;DHT22;14792;50.886;6.468;2023-06-14T10:34:56;27.20;68.30
27306;DHT22;14792;50.886;6.468;2023-06-14T10:38:06;27.00;67.70
27306;DHT22;14792;50.886;6.468;2023-06-14T10:40:58;27.30;68.00
27306;DHT22;14792;50.886;6.468;2023-06-14T10:47:29;26.70;70.60
27306;DHT22;14792;50.886;6.468;2023-06-14T10:50:30;27.30;72.40
27306;DHT22;14792;50.886;6.468;2023-06-14T10:53:39;27.30;71.70
27306;DHT22;14792;50.886;6.468;2023-06-14T10:56:33;27.20;72.10
27306;DHT22;14792;50.886;6.468;2023-06-14T10:59:35;26.70;69.80
27306;DHT22;14792;50.886;6.468;2023-06-14T11:05:53;27.50;72.60
27306;DHT22;14792;50.886;6.468;2023-06-14T11:11:58;26.60;70.80
27306;DHT22;14792;50.886;6.468;2023-06-14T11:15:00;26.80;73.20
27306;DHT22;14792;50.886;6.468;2023-06-14T11:18:05;27.00;73.40
27306;DHT22;14792;50.886;6.468;2023-06-14T11:21:05;26.70;74.10
27306;DHT22;14792;50.886;6.468;2023-06-14T11:24:09;26.40;77.00
27306;DHT22;14792;50.886;6.468;2023-06-14T11:27:09;26.20;77.60
27306;DHT22;14792;50.886;6.468;2023-06-14T11:30:10;26.10;77.70
27306;DHT22;14792;50.886;6.468;2023-06-14T11:33:16;26.30;80.30
27306;DHT22;14792;50.886;6.468;2023-06-14T11:36:13;27.00;79.90
27306;DHT22;14792;50.886;6.468;2023-06-14T11:39:15;26.20;77.30
27306;DHT22;14792;50.886;6.468;2023-06-14T11:42:17;25.90;80.00
27306;DHT22;14792;50.886;6.468;2023-06-14T11:45:18;26.90;76.90
27306;DHT22;14792;50.886;6.468;2023-06-14T11:48:20;26.80;78.30
27306;DHT22;14792;50.886;6.468;2023-06-14T11:51:21;27.00;77.40
27306;DHT22;14792;50.886;6.468;2023-06-14T11:54:23;27.10;78.60
27306;DHT22;14792;50.886;6.468;2023-06-14T11:57:25;26.90;76.10
27306;DHT22;14792;50.886;6.468;2023-06-14T12:00:26;26.60;77.20
27306;DHT22;14792;50.886;6.468;2023-06-14T12:03:28;27.20;78.40
27306;DHT22;14792;50.886;6.468;2023-06-14T12:06:30;26.50;75.10
27306;DHT22;14792;50.886;6.468;2023-06-14T12:09:31;26.60;76.20
27306;DHT22;14792;50.886;6.468;2023-06-14T12:12:34;27.00;78.50
27306;DHT22;14792;50.886;6.468;2023-06-14T12:15:34;27.00;76.20
27306;DHT22;14792;50.886;6.468;2023-06-14T12:18:36;26.80;74.60
27306;DHT22;14792;50.886;6.468;2023-06-14T12:21:38;27.20;73.40
27306;DHT22;14792;50.886;6.468;2023-06-14T12:24:39;27.20;77.30
27306;DHT22;14792;50.886;6.468;2023-06-14T12:27:40;27.50;72.60
27306;DHT22;14792;50.886;6.468;2023-06-14T12:30:42;26.70;76.30
27306;DHT22;14792;50.886;6.468;2023-06-14T12:33:44;27.30;74.20
27306;DHT22;14792;50.886;6.468;2023-06-14T12:36:45;27.10;80.00
27306;DHT22;14792;50.886;6.468;2023-06-14T12:39:47;27.30;76.70
27306;DHT22;14792;50.886;6.468;2023-06-14T12:42:48;27.60;76.50
27306;DHT22;14792;50.886;6.468;2023-06-14T12:45:50;27.70;75.80
27306;DHT22;14792;50.886;6.468;2023-06-14T12:48:52;27.50;75.30
27306;DHT22;14792;50.886;6.468;2023-06-14T12:51:53;27.30;81.50
27306;DHT22;14792;50.886;6.468;2023-06-14T12:54:55;28.00;80.80
27306;DHT22;14792;50.886;6.468;2023-06-14T12:57:56;27.90;78.00
27306;DHT22;14792;50.886;6.468;2023-06-14T13:00:58;27.40;77.20
27306;DHT22;14792;50.886;6.468;2023-06-14T13:04:00;26.90;80.30
27306;DHT22;14792;50.886;6.468;2023-06-14T13:07:01;26.90;78.10
27306;DHT22;14792;50.886;6.468;2023-06-14T13:10:04;27.00;77.10
27306;DHT22;14792;50.886;6.468;2023-06-14T13:13:06;26.70;78.00
27306;DHT22;14792;50.886;6.468;2023-06-14T13:16:07;26.30;79.00
27306;DHT22;14792;50.886;6.468;2023-06-14T13:19:09;26.70;79.40
27306;DHT22;14792;50.886;6.468;2023-06-14T13:22:11;27.20;77.80
27306;DHT22;14792;50.886;6.468;2023-06-14T13:25:12;27.80;78.00
27306;DHT22;14792;50.886;6.468;2023-06-14T13:28:14;28.20;76.70
27306;DHT22;14792;50.886;6.468;2023-06-14T13:31:15;28.40;74.90
27306;DHT22;14792;50.886;6.468;2023-06-14T13:34:17;29.00;73.30
27306;DHT22;14792;50.886;6.468;2023-06-14T13:37:18;28.70;78.00
27306;DHT22;14792;50.886;6.468;2023-06-14T13:40:20;28.50;77.60
27306;DHT22;14792;50.886;6.468;2023-06-14T13:43:22;28.10;75.90
27306;DHT22;14792;50.886;6.468;2023-06-14T13:46:23;27.50;77.10
27306;DHT22;14792;50.886;6.468;2023-06-14T13:49:25;27.90;75.30
27306;DHT22;14792;50.886;6.468;2023-06-14T13:52:26;27.80;79.30
27306;DHT22;14792;50.886;6.468;2023-06-14T13:55:28;27.30;75.90
27306;DHT22;14792;50.886;6.468;2023-06-14T13:58:30;27.60;76.30
27306;DHT22;14792;50.886;6.468;2023-06-14T14:01:31;27.40;75.10
27306;DHT22;14792;50.886;6.468;2023-06-14T14:04:33;27.20;72.80
27306;DHT22;14792;50.886;6.468;2023-06-14T14:07:34;27.50;74.00
27306;DHT22;14792;50.886;6.468;2023-06-14T14:10:36;27.20;75.00
27306;DHT22;14792;50.886;6.468;2023-06-14T14:13:38;27.00;77.60
27306;DHT22;14792;50.886;6.468;2023-06-14T14:16:39;27.50;75.70
27306;DHT22;14792;50.886;6.468;2023-06-14T14:19:41;27.70;75.30
27306;DHT22;14792;50.886;6.468;2023-06-14T14:22:42;27.90;72.20
27306;DHT22;14792;50.886;6.468;2023-06-14T14:25:44;28.00;76.20
27306;DHT22;14792;50.886;6.468;2023-06-14T14:28:46;28.20;72.80
27306;DHT22;14792;50.886;6.468;2023-06-14T14:31:47;28.40;74.30
27306;DHT22;14792;50.886;6.468;2023-06-14T14:34:49;28.10;73.20
27306;DHT22;14792;50.886;6.468;2023-06-14T14:37:51;28.10;73.90
27306;DHT22;14792;50.886;6.468;2023-06-14T14:40:52;28.00;74.40
27306;DHT22;14792;50.886;6.468;2023-06-14T14:43:54;28.10;73.80
27306;DHT22;14792;50.886;6.468;2023-06-14T14:46:55;28.40;74.20
27306;DHT22;14792;50.886;6.468;2023-06-14T14:49:57;28.70;72.40
27306;DHT22;14792;50.886;6.468;2023-06-14T14:52:58;28.70;72.00
27306;DHT22;14792;50.886;6.468;2023-06-14T14:56:01;28.00;72.30
27306;DHT22;14792;50.886;6.468;2023-06-14T14:59:03;27.30;72.50
27306;DHT22;14792;50.886;6.468;2023-06-14T15:02:05;27.20;72.60
27306;DHT22;14792;50.886;6.468;2023-06-14T15:05:06;27.60;74.60
27306;DHT22;14792;50.886;6.468;2023-06-14T15:08:08;28.00;72.70
27306;DHT22;14792;50.886;6.468;2023-06-14T15:11:09;27.70;70.80
27306;DHT22;14792;50.886;6.468;2023-06-14T15:14:15;27.50;73.00
27306;DHT22;14792;50.886;6.468;2023-06-14T15:17:17;26.90;72.60
27306;DHT22;14792;50.886;6.468;2023-06-14T15:20:18;26.90;75.00
27306;DHT22;14792;50.886;6.468;2023-06-14T15:23:20;27.30;73.70
27306;DHT22;14792;50.886;6.468;2023-06-14T15:26:21;27.80;73.30
27306;DHT22;14792;50.886;6.468;2023-06-14T15:29:23;28.00;73.30
27306;DHT22;14792;50.886;6.468;2023-06-14T15:32:25;27.50;73.10
27306;DHT22;14792;50.886;6.468;2023-06-14T15:35:26;27.20;71.30
27306;DHT22;14792;50.886;6.468;2023-06-14T15:38:28;26.70;71.00
27306;DHT22;14792;50.886;6.468;2023-06-14T15:41:29;26.60;73.50
27306;DHT22;14792;50.886;6.468;2023-06-14T15:44:31;27.20;76.60
27306;DHT22;14792;50.886;6.468;2023-06-14T15:47:32;27.20;73.60
27306;DHT22;14792;50.886;6.468;2023-06-14T15:50:34;27.40;72.90
27306;DHT22;14792;50.886;6.468;2023-06-14T15:53:36;27.40;73.50
27306;DHT22;14792;50.886;6.468;2023-06-14T15:56:37;27.30;73.00
27306;DHT22;14792;50.886;6.468;2023-06-14T15:59:39;27.50;72.20
27306;DHT22;14792;50.886;6.468;2023-06-14T16:02:40;27.10;71.90
27306;DHT22;14792;50.886;6.468;2023-06-14T16:05:42;26.70;71.30
27306;DHT22;14792;50.886;6.468;2023-06-14T16:08:44;26.60;71.60
27306;DHT22;14792;50.886;6.468;2023-06-14T16:11:45;26.60;74.90
27306;DHT22;14792;50.886;6.468;2023-06-14T16:14:47;26.90;72.60
27306;DHT22;14792;50.886;6.468;2023-06-14T16:17:48;26.80;71.70
27306;DHT22;14792;50.886;6.468;2023-06-14T16:20:50;26.70;72.60
27306;DHT22;14792;50.886;6.468;2023-06-14T16:23:52;26.60;72.10
27306;DHT22;14792;50.886;6.468;2023-06-14T16:26:53;26.90;74.60
27306;DHT22;14792;50.886;6.468;2023-06-14T16:29:55;26.70;72.30
27306;DHT22;14792;50.886;6.468;2023-06-14T16:32:56;26.90;72.70
27306;DHT22;14792;50.886;6.468;2023-06-14T16:35:58;27.20;72.30
27306;DHT22;14792;50.886;6.468;2023-06-14T16:38:59;26.90;71.80
27306;DHT22;14792;50.886;6.468;2023-06-14T16:42:01;27.10;72.60
27306;DHT22;14792;50.886;6.468;2023-06-14T16:45:03;26.60;71.10
27306;DHT22;14792;50.886;6.468;2023-06-14T16:48:04;26.60;71.50
27306;DHT22;14792;50.886;6.468;2023-06-14T16:51:06;26.40;71.80
27306;DHT22;14792;50.886;6.468;2023-06-14T16:54:07;26.20;74.20
27306;DHT22;14792;50.886;6.468;2023-06-14T16:57:09;26.30;72.80
27306;DHT22;14792;50.886;6.468;2023-06-14T17:00:11;26.10;72.70
27306;DHT22;14792;50.886;6.468;2023-06-14T17:03:12;26.20;74.30
27306;DHT22;14792;50.886;6.468;2023-06-14T17:06:14;25.70;72.90
27306;DHT22;14792;50.886;6.468;2023-06-14T17:09:15;25.40;73.20
27306;DHT22;14792;50.886;6.468;2023-06-14T17:12:17;25.50;73.20
27306;DHT22;14792;50.886;6.468;2023-06-14T17:15:19;25.80;73.90
27306;DHT22;14792;50.886;6.468;2023-06-14T17:18:20;25.60;72.80
27306;DHT22;14792;50.886;6.468;2023-06-14T17:21:22;25.70;73.40
27306;DHT22;14792;50.886;6.468;2023-06-14T17:24:23;25.90;74.30
27306;DHT22;14792;50.886;6.468;2023-06-14T17:27:25;25.70;73.00
27306;DHT22;14792;50.886;6.468;2023-06-14T17:30:27;25.60;74.10
27306;DHT22;14792;50.886;6.468;2023-06-14T17:33:28;25.30;73.00
27306;DHT22;14792;50.886;6.468;2023-06-14T17:36:30;25.20;73.90
27306;DHT22;14792;50.886;6.468;2023-06-14T17:39:31;25.20;74.30
27306;DHT22;14792;50.886;6.468;2023-06-14T17:42:33;25.00;75.40
27306;DHT22;14792;50.886;6.468;2023-06-14T17:45:34;25.10;74.80
27306;DHT22;14792;50.886;6.468;2023-06-14T17:48:36;24.80;74.80
27306;DHT22;14792;50.886;6.468;2023-06-14T17:51:38;24.70;75.80
27306;DHT22;14792;50.886;6.468;2023-06-14T17:54:39;24.50;76.20
27306;DHT22;14792;50.886;6.468;2023-06-14T17:57:41;24.30;76.70
27306;DHT22;14792;50.886;6.468;2023-06-14T18:00:43;24.20;76.90
27306;DHT22;14792;50.886;6.468;2023-06-14T18:03:44;24.20;76.60
27306;DHT22;14792;50.886;6.468;2023-06-14T18:06:46;24.10;76.30
27306;DHT22;14792;50.886;6.468;2023-06-14T18:09:47;24.10;77.30
27306;DHT22;14792;50.886;6.468;2023-06-14T18:12:49;24.10;78.10
27306;DHT22;14792;50.886;6.468;2023-06-14T18:15:51;24.10;78.20
27306;DHT22;14792;50.886;6.468;2023-06-14T18:18:52;24.00;78.40
27306;DHT22;14792;50.886;6.468;2023-06-14T18:21:54;23.80;78.70
27306;DHT22;14792;50.886;6.468;2023-06-14T18:24:55;23.70;80.20
27306;DHT22;14792;50.886;6.468;2023-06-14T18:27:57;23.60;79.40
27306;DHT22;14792;50.886;6.468;2023-06-14T18:30:58;23.50;78.70
27306;DHT22;14792;50.886;6.468;2023-06-14T18:34:00;23.40;79.20
27306;DHT22;14792;50.886;6.468;2023-06-14T18:37:02;23.30;79.80
27306;DHT22;14792;50.886;6.468;2023-06-14T18:40:03;23.30;79.60
27306;DHT22;14792;50.886;6.468;2023-06-14T18:43:05;23.20;79.30
27306;DHT22;14792;50.886;6.468;2023-06-14T18:46:09;23.00;78.80
27306;DHT22;14792;50.886;6.468;2023-06-14T18:49:08;22.90;78.50
27306;DHT22;14792;50.886;6.468;2023-06-14T18:52:10;22.90;78.50
27306;DHT22;14792;50.886;6.468;2023-06-14T18:55:11;22.80;78.70
27306;DHT22;14792;50.886;6.468;2023-06-14T18:58:15;22.80;80.00
27306;DHT22;14792;50.886;6.468;2023-06-14T19:01:17;22.70;79.70
27306;DHT22;14792;50.886;6.468;2023-06-14T19:04:18;22.70;80.20
27306;DHT22;14792;50.886;6.468;2023-06-14T19:07:20;22.60;80.10
27306;DHT22;14792;50.886;6.468;2023-06-14T19:10:22;22.50;80.30
27306;DHT22;14792;50.886;6.468;2023-06-14T19:13:23;22.40;80.40
27306;DHT22;14792;50.886;6.468;2023-06-14T19:16:25;22.30;81.00
27306;DHT22;14792;50.886;6.468;2023-06-14T19:19:26;22.20;81.60